Airfield :
LOGIN :

Register | Disclaimer

   EN    FR    IT 

 










Legend :    VFR   Marginal VFR   IFR   Intensive IFR   Very Intensive IFR
Visi :
Ceiling :
>= 8 km
>= 3000ft
5 to 8 km
1000 to 3000 ft
1500m to 5 km
500 to 1000 ft
800 to 1500m
200 to 500 ft
< 800m
< 200 ft
Symbols :   Thunderstorms  Fog  Heavy snow  Heavy precipitations  Wind > 20 kt
SIGMETs :     Misc.  Thunderstorms  Icing  Turbulence  Mountain Waves  Volcanic Ashes






- Airport Elevation : 202 ft
- IATA code : LGW


EGKK - London Gatwick

CURRENT METAR :
  • 102320Z 23009KT CAVOK 08/06 Q1008

EXPIRED METARs :
  • 102250Z 24010KT CAVOK 09/06 Q1008
  • 102220Z 25012KT 9999 -RA FEW028 09/07 Q1008
  • 102150Z 27013KT 9999 -RA FEW010 SCT011 09/07 Q1007
  • 102120Z 28012G22KT 9999 -RA SCT010 BKN014 BKN027 10/09 Q1006
  • 102050Z 25016KT 4000 -RA BKN007 11/10 Q1006

TAF TAF EGKK
Valid from the 11 at 00:00 until the 12 at 06:00 UTC


102301Z 1100/1206 26014KT 9999 FEW030
BECMG 1103/1107 20009KT
TEMPO 1112/1118 6000 SHRA
PROB40
TEMPO 1114/1117 3000 +SHRA SHRAGS BKN012CB
BECMG 1116/1119 27010KT
PROB40 1200/1206 8000
BECMG 1204/1206 18004KT



MET'MAP, your aeronautical weather chart ! - Copyright ORBIFLY December 2007 - Disclaimer

ORBIFLY MET'MAP TEAM :

Programming & Development : Alexandra Zaïnal
Concept & original design : Baudouin d'Aumeries
Assistance for programming : Marc-Olivier Méhu
Technical & hardware support : Manuel Goepfert

Contact : metmap@orbifly.com




SOURCES & CREDITS :

   NOAA